Kansai — JD3272 — position and weather

sailwx.info

Track history (hours):
 
Tides and Currents Weather Stations Pressure Air Temp Water Temp Dewpoint Dewpoint Depression Visibility Wind Speed Wind Dir Waves Ship Positions

Kansai

Last reported at 2017-Apr-22 00:55 UTC. Time now 2017-Apr-23 18:03 UTC.
Position N 34°02' E 134°59'.

Length 73 m; draft 4.2 m.

Type: Cargo ship. MMSI: 431003134.

Date/timePositionNaut miles runAvg speedWind from/ knotsBaromVisibWave heightAir tempDewpointWater temp
2017-Apr-22 00:55N 34°02' E 134°59'511.3
2017-Apr-22 00:27N 34°07' E 134°59'611.2
2017-Apr-21 23:55N 34°13' E 134°59'1110.7
2017-Apr-21 22:52N 34°25' E 135°01'411.1
2017-Apr-21 22:30N 34°29' E 135°01'510.5
2017-Apr-21 22:00N 34°34' E 135°03'8 6.8
2017-Apr-21 20:50N 34°37' E 134°54'5 9.9
2017-Apr-21 20:19N 34°40' E 134°49'0 0.0
2017-Apr-21 09:38N 34°40' E 134°49'213.3
2017-Apr-21 09:27N 34°39' E 134°51'511.9
2017-Apr-21 09:00N 34°37' E 134°58'611.5
2017-Apr-21 08:30N 34°36' E 135°04'611.7
2017-Apr-21 08:00N 34°37' E 135°11'4 8.8
2017-Apr-21 07:30N 34°40' E 135°15'2 4.7
2017-Apr-21 07:00N 34°42' E 135°15'0 0.0
2017-Apr-21 06:30N 34°42' E 135°15'0 0.0
2017-Apr-21 06:00N 34°42' E 135°15'0 0.0
2017-Apr-21 05:30N 34°42' E 135°15'0 0.0
2017-Apr-21 05:00N 34°42' E 135°15'0 0.0
2017-Apr-21 04:30N 34°42' E 135°15'0 0.0
2017-Apr-21 04:00N 34°42' E 135°15'0 0.0
2017-Apr-21 03:30N 34°42' E 135°15'0 0.0
2017-Apr-21 03:00N 34°42' E 135°15'0 0.0
2017-Apr-21 02:30N 34°42' E 135°15'0 0.0
2017-Apr-21 02:00N 34°42' E 135°15'0 0.0
2017-Apr-21 01:30N 34°42' E 135°15'0 0.0
2017-Apr-21 01:00N 34°42' E 135°15'0 0.0
2017-Apr-21 00:30N 34°42' E 135°15'0 0.0
2017-Apr-20 23:59N 34°42' E 135°15'0 0.0
2017-Apr-20 23:30N 34°42' E 135°15'1 1.2
2017-Apr-20 23:00N 34°42' E 135°15'3 5.1
2017-Apr-20 22:31N 34°39' E 135°16'4 7.1
2017-Apr-20 22:00N 34°36' E 135°14'3 6.6
2017-Apr-20 21:30N 34°36' E 135°10'5 9.5
2017-Apr-20 21:00N 34°35' E 135°04'7 8.7
2017-Apr-20 20:11N 34°37' E 134°55'410.0
2017-Apr-20 19:49N 34°39' E 134°52'310.5
2017-Apr-20 19:30N 34°41' E 134°49'0 0.0
2017-Apr-20 07:35N 34°40' E 134°49'512.4
2017-Apr-20 07:09N 34°37' E 134°54'212.4
2017-Apr-20 06:59N 34°38' E 134°57'612.4
2017-Apr-20 06:30N 34°36' E 135°04'213 7.8
2017-Apr-19 03:02N 34°51' E 139°23'3 8.7
2017-Apr-19 02:43N 34°53' E 139°25'3 8.4
2017-Apr-19 02:24N 34°55' E 139°28'4 8.1
2017-Apr-19 01:55N 34°57' E 139°31'3 8.1
2017-Apr-19 01:30N 34°60' E 139°34'4 8.4
2017-Apr-19 01:00N 35°03' E 139°38'4 7.7
2017-Apr-19 00:30N 35°05' E 139°41'4 8.4
2017-Apr-19 00:00N 35°08' E 139°45'510.1
2017-Apr-18 23:30N 35°13' E 139°46'510.7
2017-Apr-18 23:01N 35°18' E 139°44'510.5
2017-Apr-18 22:30N 35°23' E 139°43'510.6
2017-Apr-18 22:00N 35°27' E 139°47'610.9
2017-Apr-18 21:30N 35°31' E 139°52'7 1.0
2017-Apr-18 13:59N 35°37' E 139°58'0 0.0
2017-Apr-18 13:30N 35°37' E 139°58'4 0.1
2017-Apr-17 04:26N 35°41' E 139°58'0 0.0
2017-Apr-17 02:32N 35°41' E 139°58'0 0.0
2017-Apr-17 02:24N 35°41' E 139°58'0 0.0
2017-Apr-17 01:29N 35°41' E 139°58'0 0.0
2017-Apr-17 00:57N 35°41' E 139°58'0 0.0
2017-Apr-17 00:30N 35°41' E 139°58'0 0.0
2017-Apr-17 00:00N 35°41' E 139°58'0 0.0
2017-Apr-16 23:29N 35°41' E 139°58'0 0.0
2017-Apr-16 23:00N 35°41' E 139°58'0 0.0
2017-Apr-16 22:30N 35°41' E 139°58'0 0.0
2017-Apr-16 22:00N 35°41' E 139°58'0 0.0
2017-Apr-16 21:30N 35°41' E 139°58'0 0.0
2017-Apr-16 21:00N 35°41' E 139°58'0 0.0
2017-Apr-16 20:30N 35°41' E 139°58'0 0.0
2017-Apr-16 20:00N 35°41' E 139°58'0 0.0
2017-Apr-16 19:30N 35°41' E 139°58'0 0.0
2017-Apr-16 19:00N 35°41' E 139°58'0 0.0
2017-Apr-16 18:30N 35°41' E 139°58'0 0.0
2017-Apr-16 18:00N 35°41' E 139°58'0 0.0
2017-Apr-16 17:30N 35°41' E 139°58'0 0.0
2017-Apr-16 17:00N 35°41' E 139°58'0 0.0
2017-Apr-16 16:30N 35°41' E 139°58'0 0.0
2017-Apr-16 16:00N 35°41' E 139°58'0 0.0
2017-Apr-16 15:30N 35°41' E 139°58'0 0.0
2017-Apr-16 15:00N 35°41' E 139°58'0 0.0
2017-Apr-16 14:00N 35°41' E 139°58'0 0.0
2017-Apr-16 13:28N 35°41' E 139°58'0 0.0
2017-Apr-16 12:56N 35°41' E 139°58'0 0.0
2017-Apr-16 12:28N 35°41' E 139°58'0 0.0
2017-Apr-16 11:59N 35°41' E 139°58'0 0.0
2017-Apr-16 11:30N 35°41' E 139°58'0 0.0
2017-Apr-16 11:00N 35°41' E 139°58'0 0.0
2017-Apr-16 10:30N 35°41' E 139°58'0 0.0
2017-Apr-16 10:00N 35°41' E 139°58'0 0.0
2017-Apr-16 09:30N 35°41' E 139°58'0 0.0
2017-Apr-16 09:00N 35°41' E 139°58'0 0.0
2017-Apr-16 08:29N 35°41' E 139°58'0 0.0
2017-Apr-16 07:59N 35°41' E 139°58'0 0.0
2017-Apr-16 07:30N 35°41' E 139°58'0 0.0
2017-Apr-16 07:00N 35°41' E 139°58'0 0.0
2017-Apr-16 06:29N 35°41' E 139°58'0 0.0
2017-Apr-16 06:00N 35°41' E 139°58'0 0.0
2017-Apr-16 05:27N 35°41' E 139°58'0 0.0
2017-Apr-16 04:59N 35°41' E 139°58'0 0.0
2017-Apr-16 04:28N 35°41' E 139°58'0 0.0
2017-Apr-16 04:00N 35°41' E 139°58'0 0.0
2017-Apr-16 03:30N 35°41' E 139°58'0 0.0
2017-Apr-16 03:00N 35°41' E 139°58'0 0.0
2017-Apr-16 02:30N 35°41' E 139°58'0 0.0
2017-Apr-16 02:00N 35°41' E 139°58'0 0.0
2017-Apr-16 01:30N 35°41' E 139°58'0 0.0
2017-Apr-16 00:56N 35°41' E 139°58'0 0.0
2017-Apr-16 00:26N 35°41' E 139°58'0 0.0
2017-Apr-15 23:59N 35°41' E 139°58'0 0.0
2017-Apr-15 23:28N 35°41' E 139°58'0 0.0
2017-Apr-15 22:53N 35°41' E 139°58'0 0.0
2017-Apr-15 22:30N 35°41' E 139°58'0 0.0
2017-Apr-15 22:00N 35°41' E 139°58'0 0.2
2017-Apr-15 21:18N 35°41' E 139°58'1 3.0
2017-Apr-15 20:57N 35°40' E 139°58'4 7.9
2017-Apr-15 20:30N 35°36' E 139°57'510.4
2017-Apr-15 20:00N 35°32' E 139°54'510.5
2017-Apr-15 19:30N 35°27' E 139°50'510.4
2017-Apr-15 19:00N 35°23' E 139°46'510.3
2017-Apr-15 18:30N 35°18' E 139°45'510.4
2017-Apr-15 18:00N 35°13' E 139°47'4 8.9
2017-Apr-15 17:30N 35°09' E 139°46'4 7.5
2017-Apr-15 17:00N 35°05' E 139°45'4 7.1
2017-Apr-15 16:30N 35°02' E 139°43'3 6.6
2017-Apr-15 15:59N 35°00' E 139°40'3 6.5
2017-Apr-15 15:30N 34°59' E 139°36'4 7.1
2017-Apr-15 15:00N 34°57' E 139°33'232 8.1
2017-Apr-14 10:30N 34°01' E 134°59'5 9.2
2017-Apr-14 09:58N 34°06' E 134°59'6 9.9
2017-Apr-14 09:22N 34°12' E 134°58'410.8
2017-Apr-14 08:57N 34°16' E 134°58'610.4
2017-Apr-14 08:24N 34°22' E 134°59'410.5
2017-Apr-14 08:00N 34°26' E 135°01'510.4
2017-Apr-14 07:29N 34°31' E 135°02'510.9
2017-Apr-14 07:00N 34°37' E 135°02'6 0.2
2017-Apr-13 06:05N 34°37' E 134°55'111.8
2017-Apr-13 06:00N 34°37' E 134°56'5 9.3
2017-Apr-13 05:24N 34°37' E 135°03'410.8
2017-Apr-13 05:00N 34°37' E 135°08'2 4.4
2017-Apr-13 04:30N 34°38' E 135°10'2 4.2
2017-Apr-13 04:00N 34°36' E 135°09'213 7.9
2017-Apr-12 01:11N 34°56' E 139°27'311.8
2017-Apr-12 00:58N 34°58' E 139°30'  
Track history (hours):
 
Tides and Currents Weather Stations Pressure Air Temp Water Temp Dewpoint Dewpoint Depression Visibility Wind Speed Wind Dir Waves Ship Positions

Kansai

Last reported at 2017-Apr-22 00:55 UTC. Time now 2017-Apr-23 18:03 UTC.
Position N 34°02' E 134°59'.

Length 73 m; draft 4.2 m.

Type: Cargo ship. MMSI: 431003134.

Date/timePositionNaut miles runAvg speedWind from/ knotsBaromVisibWave heightAir tempDewpointWater temp
2017-Apr-22 00:55N 34°02' E 134°59'511.3
2017-Apr-22 00:27N 34°07' E 134°59'611.2
2017-Apr-21 23:55N 34°13' E 134°59'1110.7
2017-Apr-21 22:52N 34°25' E 135°01'411.1
2017-Apr-21 22:30N 34°29' E 135°01'510.5
2017-Apr-21 22:00N 34°34' E 135°03'8 6.8
2017-Apr-21 20:50N 34°37' E 134°54'5 9.9
2017-Apr-21 20:19N 34°40' E 134°49'0 0.0
2017-Apr-21 09:38N 34°40' E 134°49'213.3
2017-Apr-21 09:27N 34°39' E 134°51'511.9
2017-Apr-21 09:00N 34°37' E 134°58'611.5
2017-Apr-21 08:30N 34°36' E 135°04'611.7
2017-Apr-21 08:00N 34°37' E 135°11'4 8.8
2017-Apr-21 07:30N 34°40' E 135°15'2 4.7
2017-Apr-21 07:00N 34°42' E 135°15'0 0.0
2017-Apr-21 06:30N 34°42' E 135°15'0 0.0
2017-Apr-21 06:00N 34°42' E 135°15'0 0.0
2017-Apr-21 05:30N 34°42' E 135°15'0 0.0
2017-Apr-21 05:00N 34°42' E 135°15'0 0.0
2017-Apr-21 04:30N 34°42' E 135°15'0 0.0
2017-Apr-21 04:00N 34°42' E 135°15'0 0.0
2017-Apr-21 03:30N 34°42' E 135°15'0 0.0
2017-Apr-21 03:00N 34°42' E 135°15'0 0.0
2017-Apr-21 02:30N 34°42' E 135°15'0 0.0
2017-Apr-21 02:00N 34°42' E 135°15'0 0.0
2017-Apr-21 01:30N 34°42' E 135°15'0 0.0
2017-Apr-21 01:00N 34°42' E 135°15'0 0.0
2017-Apr-21 00:30N 34°42' E 135°15'0 0.0
2017-Apr-20 23:59N 34°42' E 135°15'0 0.0
2017-Apr-20 23:30N 34°42' E 135°15'1 1.2
2017-Apr-20 23:00N 34°42' E 135°15'3 5.1
2017-Apr-20 22:31N 34°39' E 135°16'4 7.1
2017-Apr-20 22:00N 34°36' E 135°14'3 6.6
2017-Apr-20 21:30N 34°36' E 135°10'5 9.5
2017-Apr-20 21:00N 34°35' E 135°04'7 8.7
2017-Apr-20 20:11N 34°37' E 134°55'410.0
2017-Apr-20 19:49N 34°39' E 134°52'310.5
2017-Apr-20 19:30N 34°41' E 134°49'0 0.0
2017-Apr-20 07:35N 34°40' E 134°49'512.4
2017-Apr-20 07:09N 34°37' E 134°54'212.4
2017-Apr-20 06:59N 34°38' E 134°57'612.4
2017-Apr-20 06:30N 34°36' E 135°04'213 7.8
2017-Apr-19 03:02N 34°51' E 139°23'3 8.7
2017-Apr-19 02:43N 34°53' E 139°25'3 8.4
2017-Apr-19 02:24N 34°55' E 139°28'4 8.1
2017-Apr-19 01:55N 34°57' E 139°31'3 8.1
2017-Apr-19 01:30N 34°60' E 139°34'4 8.4
2017-Apr-19 01:00N 35°03' E 139°38'4 7.7
2017-Apr-19 00:30N 35°05' E 139°41'4 8.4
2017-Apr-19 00:00N 35°08' E 139°45'510.1
2017-Apr-18 23:30N 35°13' E 139°46'510.7
2017-Apr-18 23:01N 35°18' E 139°44'510.5
2017-Apr-18 22:30N 35°23' E 139°43'510.6
2017-Apr-18 22:00N 35°27' E 139°47'610.9
2017-Apr-18 21:30N 35°31' E 139°52'7 1.0
2017-Apr-18 13:59N 35°37' E 139°58'0 0.0
2017-Apr-18 13:30N 35°37' E 139°58'4 0.1
2017-Apr-17 04:26N 35°41' E 139°58'0 0.0
2017-Apr-17 02:32N 35°41' E 139°58'0 0.0
2017-Apr-17 02:24N 35°41' E 139°58'0 0.0
2017-Apr-17 01:29N 35°41' E 139°58'0 0.0
2017-Apr-17 00:57N 35°41' E 139°58'0 0.0
2017-Apr-17 00:30N 35°41' E 139°58'0 0.0
2017-Apr-17 00:00N 35°41' E 139°58'0 0.0
2017-Apr-16 23:29N 35°41' E 139°58'0 0.0
2017-Apr-16 23:00N 35°41' E 139°58'0 0.0
2017-Apr-16 22:30N 35°41' E 139°58'0 0.0
2017-Apr-16 22:00N 35°41' E 139°58'0 0.0
2017-Apr-16 21:30N 35°41' E 139°58'0 0.0
2017-Apr-16 21:00N 35°41' E 139°58'0 0.0
2017-Apr-16 20:30N 35°41' E 139°58'0 0.0
2017-Apr-16 20:00N 35°41' E 139°58'0 0.0
2017-Apr-16 19:30N 35°41' E 139°58'0 0.0
2017-Apr-16 19:00N 35°41' E 139°58'0 0.0
2017-Apr-16 18:30N 35°41' E 139°58'0 0.0
2017-Apr-16 18:00N 35°41' E 139°58'0 0.0
2017-Apr-16 17:30N 35°41' E 139°58'0 0.0
2017-Apr-16 17:00N 35°41' E 139°58'0 0.0
2017-Apr-16 16:30N 35°41' E 139°58'0 0.0
2017-Apr-16 16:00N 35°41' E 139°58'0 0.0
2017-Apr-16 15:30N 35°41' E 139°58'0 0.0
2017-Apr-16 15:00N 35°41' E 139°58'0 0.0
2017-Apr-16 14:00N 35°41' E 139°58'0 0.0
2017-Apr-16 13:28N 35°41' E 139°58'0 0.0
2017-Apr-16 12:56N 35°41' E 139°58'0 0.0
2017-Apr-16 12:28N 35°41' E 139°58'0 0.0
2017-Apr-16 11:59N 35°41' E 139°58'0 0.0
2017-Apr-16 11:30N 35°41' E 139°58'0 0.0
2017-Apr-16 11:00N 35°41' E 139°58'0 0.0
2017-Apr-16 10:30N 35°41' E 139°58'0 0.0
2017-Apr-16 10:00N 35°41' E 139°58'0 0.0
2017-Apr-16 09:30N 35°41' E 139°58'0 0.0
2017-Apr-16 09:00N 35°41' E 139°58'0 0.0
2017-Apr-16 08:29N 35°41' E 139°58'0 0.0
2017-Apr-16 07:59N 35°41' E 139°58'0 0.0
2017-Apr-16 07:30N 35°41' E 139°58'0 0.0
2017-Apr-16 07:00N 35°41' E 139°58'0 0.0
2017-Apr-16 06:29N 35°41' E 139°58'0 0.0
2017-Apr-16 06:00N 35°41' E 139°58'0 0.0
2017-Apr-16 05:27N 35°41' E 139°58'0 0.0
2017-Apr-16 04:59N 35°41' E 139°58'0 0.0
2017-Apr-16 04:28N 35°41' E 139°58'0 0.0
2017-Apr-16 04:00N 35°41' E 139°58'0 0.0
2017-Apr-16 03:30N 35°41' E 139°58'0 0.0
2017-Apr-16 03:00N 35°41' E 139°58'0 0.0
2017-Apr-16 02:30N 35°41' E 139°58'0 0.0
2017-Apr-16 02:00N 35°41' E 139°58'0 0.0
2017-Apr-16 01:30N 35°41' E 139°58'0 0.0
2017-Apr-16 00:56N 35°41' E 139°58'0 0.0
2017-Apr-16 00:26N 35°41' E 139°58'0 0.0
2017-Apr-15 23:59N 35°41' E 139°58'0 0.0
2017-Apr-15 23:28N 35°41' E 139°58'0 0.0
2017-Apr-15 22:53N 35°41' E 139°58'0 0.0
2017-Apr-15 22:30N 35°41' E 139°58'0 0.0
2017-Apr-15 22:00N 35°41' E 139°58'0 0.2
2017-Apr-15 21:18N 35°41' E 139°58'1 3.0
2017-Apr-15 20:57N 35°40' E 139°58'4 7.9
2017-Apr-15 20:30N 35°36' E 139°57'510.4
2017-Apr-15 20:00N 35°32' E 139°54'510.5
2017-Apr-15 19:30N 35°27' E 139°50'510.4
2017-Apr-15 19:00N 35°23' E 139°46'510.3
2017-Apr-15 18:30N 35°18' E 139°45'510.4
2017-Apr-15 18:00N 35°13' E 139°47'4 8.9
2017-Apr-15 17:30N 35°09' E 139°46'4 7.5
2017-Apr-15 17:00N 35°05' E 139°45'4 7.1
2017-Apr-15 16:30N 35°02' E 139°43'3 6.6
2017-Apr-15 15:59N 35°00' E 139°40'3 6.5
2017-Apr-15 15:30N 34°59' E 139°36'4 7.1
2017-Apr-15 15:00N 34°57' E 139°33'232 8.1
2017-Apr-14 10:30N 34°01' E 134°59'5 9.2
2017-Apr-14 09:58N 34°06' E 134°59'6 9.9
2017-Apr-14 09:22N 34°12' E 134°58'410.8
2017-Apr-14 08:57N 34°16' E 134°58'610.4
2017-Apr-14 08:24N 34°22' E 134°59'410.5
2017-Apr-14 08:00N 34°26' E 135°01'510.4
2017-Apr-14 07:29N 34°31' E 135°02'510.9
2017-Apr-14 07:00N 34°37' E 135°02'6 0.2
2017-Apr-13 06:05N 34°37' E 134°55'111.8
2017-Apr-13 06:00N 34°37' E 134°56'5 9.3
2017-Apr-13 05:24N 34°37' E 135°03'410.8
2017-Apr-13 05:00N 34°37' E 135°08'2 4.4
2017-Apr-13 04:30N 34°38' E 135°10'2 4.2
2017-Apr-13 04:00N 34°36' E 135°09'213 7.9
2017-Apr-12 01:11N 34°56' E 139°27'311.8
2017-Apr-12 00:58N 34°58' E 139°30'  

Dump ship's entire track history